Aviation Digital Data Service (ADDS)

Output produced by METARs form (0637 UTC 27 March 2017)
found at http://www.aviationweather.gov/adds/metars/
 
MNBL 262149Z 2700/2724 09004KT 9999 SCT023 
     FM270800 8000 VCRA BKN017 
     TEMPO 2714/2717 05006KT 9999 SCT018 
     FM272100 6000 VCRA BKN016
       
TAF MNMG 270300Z 2706/2806 10008KT CAVOK 
     BECMG 2717/2722 09014KT 
     FM272300 12010KT
       
MNPC 262149Z 2700/2724 10004KT 6000 VCRA/HZ BKN016 FM 270700 34004KT SCT016 
     BECMG 2714/2717 04010KT 7000 VCRA BKN016 
     FM272100 6000 HZ SCT016